Time;durP1;ratioP1;P1;durP2;ratioP2;P2;SDS_P1;SDS_P2;PMS_P1;PMS_P2;Temp;Humidity;BMP_temperature;BMP_pressure;BME280_temperature;BME280_humidity;BME280_pressure;Samples;Min_cycle;Max_cycle;Signal;HPM_P1;HPM_P2
2022/07/23 00:00:53;;;;;;;23.07;12.58;;;;;;;16.43;81.39;94850.77;1684723;83;21462;-58
2022/07/23 00:03:21;;;;;;;21.23;11.73;;;;;;;16.41;81.53;94852.66;1688139;83;20979;-56
2022/07/23 00:05:49;;;;;;;29.12;10.70;;;;;;;16.41;81.79;94852.66;1665306;83;21057;-57
2022/07/23 00:08:16;;;;;;;19.42;11.78;;;;;;;16.42;81.72;94850.63;1687150;84;21221;-56
2022/07/23 00:10:45;;;;;;;23.10;12.33;;;;;;;16.39;81.36;94847.43;1687161;84;21071;-57
2022/07/23 00:13:14;;;;;;;18.52;11.93;;;;;;;16.37;81.40;94844.38;1687780;83;21043;-56
2022/07/23 00:15:44;;;;;;;21.15;12.37;;;;;;;16.36;81.47;94838.68;1685804;83;21014;-57
2022/07/23 00:18:13;;;;;;;20.50;12.98;;;;;;;16.36;81.42;94837.29;1663844;84;20974;-57
2022/07/23 00:20:43;;;;;;;20.15;12.70;;;;;;;16.35;81.56;94841.31;1688840;83;20950;-56
2022/07/23 00:23:12;;;;;;;24.43;12.98;;;;;;;16.37;81.61;94845.77;1683690;85;20996;-56
2022/07/23 00:25:39;;;;;;;27.35;13.20;;;;;;;16.33;81.89;94841.76;1631172;87;21402;-56
2022/07/23 00:28:08;;;;;;;18.50;11.97;;;;;;;16.28;82.21;94838.14;1638344;87;21024;-57
2022/07/23 00:30:37;;;;;;;25.05;12.33;;;;;;;16.26;82.20;94840.00;1641888;87;21090;-57
2022/07/23 00:33:07;;;;;;;18.87;11.20;;;;;;;16.21;82.25;94836.52;1630843;86;21218;-57
2022/07/23 00:35:40;;;;;;;21.90;11.20;;;;;;;16.17;82.41;94841.51;1688128;83;21126;-56
2022/07/23 00:38:12;;;;;;;17.50;10.98;;;;;;;16.09;82.69;94838.96;1687843;84;21473;-57
2022/07/23 00:40:40;;;;;;;16.50;11.12;;;;;;;16.05;83.18;94837.02;1683469;84;20966;-58
2022/07/23 00:43:08;;;;;;;18.85;11.18;;;;;;;16.00;83.25;94837.69;1684933;84;21027;-57
2022/07/23 00:45:38;;;;;;;19.73;11.83;;;;;;;15.97;83.78;94843.42;1667537;84;21267;-57
2022/07/23 00:48:09;;;;;;;25.77;10.68;;;;;;;15.92;83.94;94847.63;1687455;83;21375;-56
2022/07/23 00:50:37;;;;;;;22.13;11.95;;;;;;;15.87;84.02;94849.70;1686768;84;21514;-57
2022/07/23 00:53:05;;;;;;;19.42;11.90;;;;;;;15.83;84.34;94846.35;1682691;84;21093;-57
2022/07/23 00:55:34;;;;;;;20.12;12.93;;;;;;;15.80;84.20;94837.61;1681679;83;21560;-56
2022/07/23 00:58:02;;;;;;;23.12;12.78;;;;;;;15.75;84.04;94846.58;1684822;84;21207;-57
2022/07/23 01:00:30;;;;;;;18.37;10.78;;;;;;;15.70;83.71;94848.63;1683200;84;20967;-58
2022/07/23 01:02:58;;;;;;;19.52;12.00;;;;;;;15.66;83.70;94841.13;1685434;84;21517;-57
2022/07/23 01:05:26;;;;;;;24.23;12.18;;;;;;;15.62;83.50;94846.72;1674766;84;21054;-57
2022/07/23 01:07:55;;;;;;;19.75;11.90;;;;;;;15.57;83.57;94842.59;1680952;83;21041;-57
2022/07/23 01:10:32;;;;;;;19.67;12.58;;;;;;;15.52;83.83;94838.36;1648637;84;21861;-57
2022/07/23 01:13:03;;;;;;;21.75;11.12;;;;;;;15.50;84.12;94843.58;1685244;83;21183;-57
2022/07/23 01:15:32;;;;;;;22.32;11.48;;;;;;;15.50;84.47;94842.20;1685858;83;21515;-58
2022/07/23 01:18:00;;;;;;;20.72;12.45;;;;;;;15.50;84.97;94839.42;1681661;83;21029;-56
2022/07/23 01:20:28;;;;;;;21.37;11.93;;;;;;;15.50;84.96;94838.03;1661282;84;21091;-57
2022/07/23 01:22:57;;;;;;;19.12;13.95;;;;;;;15.46;84.93;94838.24;1687928;84;21261;-56
2022/07/23 01:25:25;;;;;;;20.17;11.08;;;;;;;15.39;84.93;94835.82;1684252;83;21101;-57
2022/07/23 01:27:58;;;;;;;20.05;11.63;;;;;;;15.34;85.10;94839.27;1681690;84;21217;-57
2022/07/23 01:30:29;;;;;;;23.60;11.73;;;;;;;15.33;85.34;94840.51;1685628;84;21049;-58
2022/07/23 01:32:57;;;;;;;22.25;13.83;;;;;;;15.32;85.57;94843.14;1681924;83;20971;-58
2022/07/23 01:35:25;;;;;;;22.35;13.98;;;;;;;15.30;85.78;94847.00;1683009;84;21459;-58
2022/07/23 01:38:15;;;;;;;20.30;13.20;;;;;;;15.27;85.79;94839.62;1685601;84;21090;-56
2022/07/23 01:40:44;;;;;;;18.42;11.10;;;;;;;15.27;85.80;94836.84;1680519;84;21494;-57
2022/07/23 01:43:12;;;;;;;20.45;10.38;;;;;;;15.32;85.54;94834.81;1662078;84;21039;-56
2022/07/23 01:45:41;;;;;;;18.17;12.35;;;;;;;15.30;84.88;94842.06;1684248;83;21152;-56
2022/07/23 01:48:10;;;;;;;21.07;12.53;;;;;;;15.29;84.99;94835.77;1682998;83;21253;-57
2022/07/23 01:50:41;;;;;;;18.67;12.07;;;;;;;15.25;84.76;94836.55;1688848;83;21014;-57
2022/07/23 01:53:27;;;;;;;19.20;11.75;;;;;;;15.24;84.86;94834.25;1694423;83;21509;-56
2022/07/23 01:55:55;;;;;;;23.40;12.70;;;;;;;15.25;85.08;94836.55;1692632;83;21583;-57
2022/07/23 01:58:24;;;;;;;19.48;13.00;;;;;;;15.27;85.24;94841.00;1667547;83;21074;-57
2022/07/23 02:00:53;;;;;;;20.72;12.28;;;;;;;15.32;85.42;94840.36;1662758;83;21275;-57
2022/07/23 02:03:20;;;;;;;15.88;12.28;;;;;;;15.29;85.43;94834.39;1694999;83;21451;-57
2022/07/23 02:05:50;;;;;;;17.15;11.65;;;;;;;15.28;85.25;94835.60;1691771;83;20996;-57
2022/07/23 02:08:19;;;;;;;19.90;12.05;;;;;;;15.28;84.84;94835.60;1698391;83;21532;-57
2022/07/23 02:10:48;;;;;;;28.83;12.90;;;;;;;15.27;84.97;94834.07;1705751;83;21021;-57
2022/07/23 02:13:15;;;;;;;21.82;13.65;;;;;;;15.28;84.94;94836.98;1699252;83;21131;-57
2022/07/23 02:15:44;;;;;;;22.32;13.20;;;;;;;15.27;85.15;94842.99;1696773;83;21577;-57
2022/07/23 02:18:12;;;;;;;20.37;11.65;;;;;;;15.20;85.24;94848.28;1698548;83;20990;-57
2022/07/23 02:20:42;;;;;;;17.12;11.57;;;;;;;15.12;85.26;94838.03;1694915;83;21134;-58
2022/07/23 02:23:10;;;;;;;18.42;10.95;;;;;;;15.07;85.22;94836.70;1687676;83;21086;-57
2022/07/23 02:25:37;;;;;;;15.58;11.12;;;;;;;15.06;85.28;94836.55;1694394;83;21136;-57
2022/07/23 02:28:05;;;;;;;18.42;11.35;;;;;;;15.07;85.46;94839.47;1694557;83;21013;-57
2022/07/23 02:30:33;;;;;;;20.92;11.78;;;;;;;15.04;85.61;94832.08;1706058;83;21097;-57
2022/07/23 02:33:02;;;;;;;23.22;12.90;;;;;;;14.99;85.97;94832.74;1696530;83;21077;-56
2022/07/23 02:35:32;;;;;;;24.52;13.72;;;;;;;14.95;85.99;94837.70;1684629;83;21493;-57
2022/07/23 02:38:01;;;;;;;26.30;13.95;;;;;;;14.92;86.13;94841.42;1702382;83;21225;-56
2022/07/23 02:40:30;;;;;;;25.15;13.62;;;;;;;14.91;85.97;94841.28;1668537;84;21080;-57
2022/07/23 02:42:58;;;;;;;18.35;12.45;;;;;;;14.84;85.90;94847.16;1692079;83;21528;-58
2022/07/23 02:45:27;;;;;;;24.82;12.23;;;;;;;14.77;86.12;94837.83;1673390;84;21497;-56
2022/07/23 02:47:55;;;;;;;29.23;12.75;;;;;;;14.73;86.18;94838.63;1668672;83;20985;-57
2022/07/23 02:50:23;;;;;;;31.45;13.38;;;;;;;14.72;86.53;94843.23;1686994;83;21190;-56
2022/07/23 02:52:52;;;;;;;36.60;12.88;;;;;;;14.74;86.50;94840.77;1684458;83;21003;-57
2022/07/23 02:55:22;;;;;;;27.87;11.93;;;;;;;14.76;86.51;94836.30;1666334;83;21061;-58
2022/07/23 02:57:52;;;;;;;23.87;14.00;;;;;;;14.80;86.47;94841.03;1691102;83;20997;-57
2022/07/23 03:00:19;;;;;;;26.75;14.75;;;;;;;14.84;86.46;94834.69;1670941;83;21248;-57
2022/07/23 03:02:47;;;;;;;22.62;13.30;;;;;;;14.87;86.55;94843.47;1697818;83;21592;-57
2022/07/23 03:05:16;;;;;;;21.27;11.15;;;;;;;14.87;86.47;94844.07;1695436;83;21427;-57
2022/07/23 03:07:45;;;;;;;25.88;11.00;;;;;;;14.83;86.33;94847.01;1690096;83;21556;-56
2022/07/23 03:10:14;;;;;;;22.93;11.78;;;;;;;14.73;86.36;94852.48;1666936;84;21033;-57
2022/07/23 03:12:45;;;;;;;26.00;12.05;;;;;;;14.70;86.65;94846.50;1691988;83;21481;-58
2022/07/23 03:15:13;;;;;;;32.25;13.22;;;;;;;14.69;86.97;94849.13;1694632;83;21295;-56
2022/07/23 03:17:42;;;;;;;23.18;13.28;;;;;;;14.71;86.88;94854.95;1683629;83;21029;-58
2022/07/23 03:20:11;;;;;;;24.15;11.78;;;;;;;14.74;86.86;94861.53;1699887;83;21576;-57
2022/07/23 03:22:41;;;;;;;17.57;12.07;;;;;;;14.79;86.69;94855.38;1701411;83;21019;-57
2022/07/23 03:25:11;;;;;;;34.78;13.05;;;;;;;14.83;86.49;94859.48;1706621;83;20977;-57
2022/07/23 03:27:39;;;;;;;24.47;12.53;;;;;;;14.85;86.53;94857.00;1689497;83;21232;-57
2022/07/23 03:30:09;;;;;;;16.90;12.28;;;;;;;14.87;86.37;94862.86;1684815;83;21013;-57
2022/07/23 03:32:39;;;;;;;20.68;11.80;;;;;;;14.82;86.14;94851.02;1707477;83;21070;-56
2022/07/23 03:35:08;;;;;;;26.40;12.90;;;;;;;14.79;86.05;94858.14;1705648;82;21152;-57
2022/07/23 03:37:37;;;;;;;20.40;13.08;;;;;;;14.80;86.17;94859.03;1691805;83;20986;-57
2022/07/23 03:40:07;;;;;;;24.50;12.43;;;;;;;14.86;86.37;94858.55;1699459;83;21856;-56
2022/07/23 03:42:37;;;;;;;21.50;12.78;;;;;;;14.95;85.99;94868.18;1706150;83;20982;-56
2022/07/23 03:45:06;;;;;;;26.37;12.70;;;;;;;14.96;85.68;94864.17;1671640;83;21025;-58
2022/07/23 03:47:36;;;;;;;44.53;13.22;;;;;;;14.96;85.65;94861.40;1681965;83;21037;-58
2022/07/23 03:50:04;;;;;;;27.22;12.43;;;;;;;14.98;85.46;94863.07;1699537;83;20995;-58
2022/07/23 03:52:34;;;;;;;41.90;13.08;;;;;;;15.06;85.86;94854.56;1708151;83;21225;-56
2022/07/23 03:55:03;;;;;;;28.87;13.03;;;;;;;15.63;86.53;94860.12;1682760;83;21014;-57
2022/07/23 03:57:31;;;;;;;34.25;13.98;;;;;;;16.40;83.58;94861.45;1687162;84;21111;-57
2022/07/23 04:00:09;;;;;;;42.98;13.18;;;;;;;16.59;80.83;94864.14;1668172;83;21077;-57
2022/07/23 04:02:40;;;;;;;18.52;11.10;;;;;;;16.56;80.04;94863.73;1692694;83;21025;-57
2022/07/23 04:05:09;;;;;;;33.18;12.18;;;;;;;16.49;79.41;94862.72;1697332;83;21229;-57
2022/07/23 04:07:38;;;;;;;23.50;12.68;;;;;;;16.42;79.53;94858.35;1662228;84;21018;-58
2022/07/23 04:10:08;;;;;;;27.98;13.30;;;;;;;16.51;79.84;94866.55;1685554;83;20978;-57
2022/07/23 04:12:36;;;;;;;19.37;13.32;;;;;;;16.71;79.46;94856.87;1671923;83;21021;-58
2022/07/23 04:15:07;;;;;;;24.47;11.57;;;;;;;16.94;78.63;94857.31;1701289;83;20969;-57
2022/07/23 04:17:35;;;;;;;23.77;12.07;;;;;;;17.13;77.72;94856.42;1665023;83;21542;-57
2022/07/23 04:20:05;;;;;;;24.18;12.28;;;;;;;17.21;77.07;94858.92;1687484;83;20985;-58
2022/07/23 04:22:35;;;;;;;25.90;12.82;;;;;;;17.19;76.61;94858.64;1686068;83;21613;-56
2022/07/23 04:25:06;;;;;;;26.80;12.95;;;;;;;17.09;76.72;94858.02;1654381;84;21014;-56
2022/07/23 04:27:36;;;;;;;27.65;13.90;;;;;;;16.98;76.95;94857.11;1700661;83;20971;-56
2022/07/23 04:30:05;;;;;;;19.25;11.35;;;;;;;16.90;77.50;94856.01;1697514;83;21289;-55
2022/07/23 04:32:33;;;;;;;26.42;12.40;;;;;;;16.93;77.81;94857.81;1700843;83;21492;-56
2022/07/23 04:35:02;;;;;;;20.65;11.28;;;;;;;16.98;77.91;94859.89;1694942;83;21074;-56
2022/07/23 04:37:31;;;;;;;23.75;12.28;;;;;;;17.05;77.76;94856.69;1698927;83;21529;-56
2022/07/23 04:39:59;;;;;;;26.68;12.55;;;;;;;17.08;77.78;94857.13;1663749;83;21094;-56
2022/07/23 04:42:27;;;;;;;27.67;12.80;;;;;;;17.20;77.85;94849.83;1713840;83;21209;-56
2022/07/23 04:44:56;;;;;;;21.52;12.23;;;;;;;17.47;77.60;94850.05;1703705;83;21178;-56
2022/07/23 04:47:24;;;;;;;20.95;10.43;;;;;;;17.76;77.05;94846.44;1673197;84;21453;-56
2022/07/23 04:49:53;;;;;;;16.90;10.43;;;;;;;18.06;75.65;94853.94;1698923;83;21188;-56
2022/07/23 04:52:20;;;;;;;16.07;11.48;;;;;;;18.22;74.48;94846.48;1690567;83;21784;-57
2022/07/23 04:54:48;;;;;;;17.50;10.95;;;;;;;18.28;73.82;94840.36;1696669;83;21187;-56
2022/07/23 04:57:18;;;;;;;18.30;11.03;;;;;;;18.25;73.36;94838.53;1698251;83;21039;-57
2022/07/23 04:59:46;;;;;;;16.93;11.45;;;;;;;18.17;73.29;94839.48;1693554;83;21089;-57
2022/07/23 05:02:15;;;;;;;16.62;11.70;;;;;;;18.11;73.40;94843.47;1697383;83;21148;-58
2022/07/23 05:04:45;;;;;;;21.12;10.43;;;;;;;18.04;73.58;94840.50;1681964;83;21185;-57
2022/07/23 05:07:13;;;;;;;15.93;11.28;;;;;;;18.02;73.97;94833.91;1686010;83;21123;-57
2022/07/23 05:09:43;;;;;;;16.10;11.18;;;;;;;18.08;74.35;94830.53;1680709;83;21022;-57
2022/07/23 05:12:11;;;;;;;15.88;11.28;;;;;;;18.19;74.38;94824.42;1659377;83;21048;-57
2022/07/23 05:14:41;;;;;;;22.15;10.55;;;;;;;18.28;74.31;94825.03;1669908;85;21046;-56
2022/07/23 05:17:10;;;;;;;24.05;11.15;;;;;;;18.35;73.77;94826.00;1696181;83;21105;-57
2022/07/23 05:19:38;;;;;;;24.98;10.15;;;;;;;18.46;73.22;94823.27;1704631;83;21151;-57
2022/07/23 05:22:07;;;;;;;22.87;12.37;;;;;;;18.55;72.93;94825.88;1688632;82;21091;-57
2022/07/23 05:24:35;;;;;;;22.02;11.68;;;;;;;18.67;73.05;94820.50;1667304;83;21660;-57
2022/07/23 05:27:04;;;;;;;20.95;10.78;;;;;;;18.81;72.87;94824.40;1695606;83;21241;-57
2022/07/23 05:29:32;;;;;;;24.60;12.13;;;;;;;18.96;72.30;94816.60;1698360;83;20984;-57
2022/07/23 05:32:02;;;;;;;21.27;11.03;;;;;;;19.07;71.74;94813.88;1658804;85;21026;-57
2022/07/23 05:34:31;;;;;;;22.25;12.73;;;;;;;19.14;71.08;94814.17;1657937;83;21136;-57
2022/07/23 05:36:59;;;;;;;18.30;11.35;;;;;;;19.20;71.00;94808.00;1664644;84;21009;-57
2022/07/23 05:39:27;;;;;;;16.07;11.50;;;;;;;19.29;70.47;94813.38;1701193;83;21038;-57
2022/07/23 05:41:57;;;;;;;23.07;11.60;;;;;;;19.37;70.06;94810.87;1666945;83;21005;-57
2022/07/23 05:44:27;;;;;;;21.90;11.97;;;;;;;19.44;69.82;94809.76;1662742;83;21847;-57
2022/07/23 05:46:55;;;;;;;33.20;12.07;;;;;;;19.54;69.52;94804.71;1704670;83;21009;-60
2022/07/23 05:49:24;;;;;;;19.82;12.13;;;;;;;19.64;69.29;94802.58;1707036;83;21027;-56
2022/07/23 05:52:07;;;;;;;23.18;10.05;;;;;;;19.77;69.16;94802.84;1693177;83;20990;-57
2022/07/23 05:54:52;;;;;;;18.48;10.58;;;;;;;19.87;68.12;94801.96;1699396;83;21461;-58
2022/07/23 05:57:19;;;;;;;19.77;10.82;;;;;;;19.92;67.72;94799.19;1665867;83;21147;-58
2022/07/23 05:59:47;;;;;;;19.57;11.40;;;;;;;20.01;67.55;94791.97;1693313;83;21113;-58
2022/07/23 06:02:16;;;;;;;24.85;10.90;;;;;;;20.08;67.32;94787.30;1690464;83;21065;-56
2022/07/23 06:04:44;;;;;;;22.98;11.18;;;;;;;20.17;67.12;94790.59;1687624;83;21061;-56
2022/07/23 06:07:13;;;;;;;15.35;11.25;;;;;;;20.28;66.83;94785.64;1682023;83;21558;-57
2022/07/23 06:09:42;;;;;;;18.48;10.05;;;;;;;20.36;66.59;94783.88;1674264;83;22261;-56
2022/07/23 06:12:11;;;;;;;21.05;11.12;;;;;;;20.45;66.30;94784.38;1706620;83;21523;-57
2022/07/23 06:14:41;;;;;;;24.75;11.28;;;;;;;20.56;65.81;94779.40;1711006;83;21071;-57
2022/07/23 06:17:09;;;;;;;21.25;10.03;;;;;;;20.71;65.36;94779.88;1706626;83;21055;-56
2022/07/23 06:19:37;;;;;;;25.50;11.05;;;;;;;20.83;65.02;94774.37;1694714;83;21080;-57
2022/07/23 06:22:05;;;;;;;28.47;10.72;;;;;;;20.96;64.37;94774.63;1678827;84;21116;-57
2022/07/23 06:24:34;;;;;;;28.70;15.38;;;;;;;21.05;64.32;94765.92;1689898;83;20979;-57
2022/07/23 06:27:03;;;;;;;20.57;10.43;;;;;;;21.16;63.51;94765.89;1665296;83;21186;-58
2022/07/23 06:29:31;;;;;;;21.17;10.18;;;;;;;21.29;62.99;94764.05;1667201;83;21051;-57
2022/07/23 06:32:01;;;;;;;17.40;10.25;;;;;;;21.40;62.68;94757.63;1694661;83;21010;-58
2022/07/23 06:34:30;;;;;;;14.30;9.45;;;;;;;21.53;62.58;94753.00;1641785;83;21241;-57
2022/07/23 06:36:58;;;;;;;17.62;9.23;;;;;;;21.68;62.18;94752.67;1674925;83;21563;-57
2022/07/23 06:39:27;;;;;;;25.08;14.50;;;;;;;21.81;61.72;94751.45;1679219;83;21303;-57
2022/07/23 06:41:55;;;;;;;16.55;10.13;;;;;;;21.92;61.06;94750.73;1667582;84;21033;-57
2022/07/23 06:44:24;;;;;;;15.35;9.80;;;;;;;22.04;60.85;94744.52;1669529;83;21082;-58
2022/07/23 06:46:52;;;;;;;13.28;9.88;;;;;;;22.15;60.23;94750.67;1671848;84;21377;-57
2022/07/23 06:49:22;;;;;;;24.12;10.00;;;;;;;22.26;60.32;94745.73;1689775;84;21525;-57
2022/07/23 06:51:50;;;;;;;21.35;10.03;;;;;;;22.41;60.19;94747.53;1685264;83;21607;-57
2022/07/23 06:54:18;;;;;;;14.78;9.83;;;;;;;22.56;59.42;94739.49;1693032;83;21588;-59
2022/07/23 06:56:47;;;;;;;14.58;9.98;;;;;;;22.71;58.59;94741.26;1708856;83;21027;-56
2022/07/23 06:59:16;;;;;;;20.48;9.18;;;;;;;22.85;58.29;94738.66;1703916;83;21419;-57
2022/07/23 07:01:44;;;;;;;12.65;8.95;;;;;;;23.02;58.04;94737.08;1668372;83;20970;-57
2022/07/23 07:04:12;;;;;;;17.90;9.05;;;;;;;23.17;57.41;94736.79;1693872;83;21070;-57
2022/07/23 07:06:40;;;;;;;16.20;9.58;;;;;;;23.29;57.01;94736.00;1683686;83;21093;-57
2022/07/23 07:09:08;;;;;;;18.37;8.93;;;;;;;23.41;56.87;94731.11;1696031;83;21102;-57
2022/07/23 07:11:39;;;;;;;14.73;8.78;;;;;;;23.54;56.54;94729.79;1697999;83;22636;-58
2022/07/23 07:14:09;;;;;;;12.10;8.43;;;;;;;23.68;56.18;94734.83;1692524;83;21055;-57
2022/07/23 07:16:38;;;;;;;13.88;8.25;;;;;;;23.80;55.59;94734.16;1702256;83;20983;-58
2022/07/23 07:19:06;;;;;;;10.68;8.10;;;;;;;23.93;54.79;94724.38;1697692;83;21099;-58
2022/07/23 07:21:35;;;;;;;15.10;8.13;;;;;;;24.04;54.17;94728.44;1663831;83;21185;-58
2022/07/23 07:24:06;;;;;;;14.03;8.10;;;;;;;24.17;53.66;94725.02;1690168;83;21142;-57
2022/07/23 07:26:52;;;;;;;18.85;9.13;;;;;;;24.32;53.47;94721.70;1698765;83;21063;-58
2022/07/23 07:29:20;;;;;;;13.88;8.33;;;;;;;24.47;53.38;94717.73;1675473;85;21131;-58
2022/07/23 07:31:48;;;;;;;9.93;8.28;;;;;;;24.61;53.40;94717.90;1659844;83;21103;-58
2022/07/23 07:34:16;;;;;;;15.08;8.73;;;;;;;24.74;53.25;94722.14;1667529;84;21029;-58
2022/07/23 07:36:46;;;;;;;18.20;8.60;;;;;;;24.91;53.87;94714.14;1691022;83;21063;-57
2022/07/23 07:39:16;;;;;;;13.00;9.00;;;;;;;25.07;54.24;94711.63;1667556;83;21050;-57
2022/07/23 07:41:46;;;;;;;16.27;7.87;;;;;;;25.25;53.49;94710.13;1692658;83;21602;-57
2022/07/23 07:44:13;;;;;;;11.48;8.58;;;;;;;25.38;52.63;94710.77;1687551;83;21046;-59
2022/07/23 07:46:41;;;;;;;13.10;9.05;;;;;;;25.52;52.99;94708.03;1691183;83;21012;-57
2022/07/23 07:49:10;;;;;;;10.93;6.90;;;;;;;25.63;52.47;94703.56;1645324;83;21155;-57
2022/07/23 07:51:39;;;;;;;11.20;7.75;;;;;;;25.77;52.16;94705.79;1695188;83;21140;-57
2022/07/23 07:54:07;;;;;;;18.45;8.63;;;;;;;25.93;52.11;94703.91;1692628;83;21199;-59
2022/07/23 07:56:35;;;;;;;17.17;8.45;;;;;;;26.06;52.15;94700.38;1701899;83;21100;-57
2022/07/23 07:59:04;;;;;;;13.68;7.33;;;;;;;26.21;51.47;94698.47;1685620;83;20973;-58
2022/07/23 08:01:33;;;;;;;12.07;7.50;;;;;;;26.39;50.87;94697.50;1699025;83;21104;-58
2022/07/23 08:04:01;;;;;;;11.73;7.85;;;;;;;26.57;50.86;94698.61;1684794;83;21014;-58
2022/07/23 08:06:30;;;;;;;11.68;7.62;;;;;;;26.72;50.29;94699.49;1687935;83;20997;-59
2022/07/23 08:08:58;;;;;;;14.10;7.30;;;;;;;26.86;49.96;94698.06;1683392;83;21204;-58
2022/07/23 08:11:27;;;;;;;11.95;7.55;;;;;;;27.01;49.19;94687.54;1668124;84;21017;-57
2022/07/23 08:13:56;;;;;;;13.25;7.53;;;;;;;27.15;49.31;94682.66;1683962;85;21055;-58
2022/07/23 08:16:27;;;;;;;18.00;7.53;;;;;;;27.30;48.13;94686.97;1705268;83;21494;-56
2022/07/23 08:18:54;;;;;;;10.98;6.83;;;;;;;27.45;48.52;94677.16;1691668;83;21505;-58
2022/07/23 08:21:22;;;;;;;15.10;7.62;;;;;;;27.61;48.45;94678.70;1662610;83;21116;-57
2022/07/23 08:23:51;;;;;;;13.10;7.30;;;;;;;27.77;46.87;94672.48;1667615;84;20994;-57
2022/07/23 08:26:19;;;;;;;10.98;6.92;;;;;;;27.94;47.57;94676.28;1688104;83;21839;-58
2022/07/23 08:28:48;;;;;;;10.70;6.97;;;;;;;28.11;47.57;94671.61;1695476;83;21069;-58
2022/07/23 08:31:18;;;;;;;15.53;7.37;;;;;;;28.23;48.19;94662.84;1703562;83;21444;-58
2022/07/23 08:33:47;;;;;;;15.63;7.62;;;;;;;28.35;47.84;94664.02;1682147;83;21302;-57
2022/07/23 08:36:15;;;;;;;11.55;6.40;;;;;;;28.50;48.01;94656.94;1677769;83;21104;-56
2022/07/23 08:38:44;;;;;;;12.90;7.60;;;;;;;28.66;47.76;94657.68;1693881;83;21172;-58
2022/07/23 08:41:12;;;;;;;14.80;7.05;;;;;;;28.79;46.46;94650.41;1698496;83;21504;-57
2022/07/23 08:43:40;;;;;;;11.93;6.92;;;;;;;28.91;46.47;94648.72;1668375;84;21033;-57
2022/07/23 08:46:09;;;;;;;12.75;6.42;;;;;;;29.06;46.35;94645.83;1687201;83;21042;-58
2022/07/23 08:48:37;;;;;;;13.62;6.45;;;;;;;29.19;45.37;94652.70;1663821;84;21644;-57
2022/07/23 08:51:06;;;;;;;13.65;6.78;;;;;;;29.29;44.45;94644.44;1670572;83;21191;-59
2022/07/23 08:53:35;;;;;;;8.98;7.00;;;;;;;29.39;43.94;94644.59;1696315;83;21067;-59
2022/07/23 08:56:04;;;;;;;13.85;6.70;;;;;;;29.52;44.44;94630.95;1682896;83;21160;-58
2022/07/23 08:58:33;;;;;;;11.85;7.20;;;;;;;29.71;45.09;94637.58;1639236;85;21150;-56
2022/07/23 09:01:01;;;;;;;12.82;6.40;;;;;;;29.88;44.25;94639.09;1646397;86;21069;-57
2022/07/23 09:03:34;;;;;;;17.23;6.92;;;;;;;30.05;43.89;94634.27;1642825;86;21341;-58
2022/07/23 09:06:03;;;;;;;12.35;7.03;;;;;;;30.19;43.67;94634.08;1648578;85;21067;-57
2022/07/23 09:08:41;;;;;;;15.63;6.70;;;;;;;30.39;42.36;94625.88;1632622;85;21152;-57
2022/07/23 09:11:16;;;;;;;16.48;7.12;;;;;;;30.57;42.17;94622.55;1638094;85;21062;-57
2022/07/23 09:13:52;;;;;;;15.10;6.47;;;;;;;30.77;40.77;94621.41;1639771;86;21482;-57
2022/07/23 09:16:28;;;;;;;13.85;6.33;;;;;;;31.01;39.58;94626.95;1637714;85;21166;-57
2022/07/23 09:19:01;;;;;;;12.70;6.00;;;;;;;31.19;38.44;94617.86;1645589;85;21247;-58
2022/07/23 09:21:32;;;;;;;11.97;5.85;;;;;;;31.37;38.71;94609.40;1645619;86;21114;-57
2022/07/23 09:24:02;;;;;;;11.22;5.25;;;;;;;31.54;36.91;94612.87;1642605;85;21149;-58
2022/07/23 09:26:39;;;;;;;12.88;6.25;;;;;;;31.66;35.94;94604.70;1641405;86;21097;-57
2022/07/23 09:29:25;;;;;;;13.72;5.58;;;;;;;31.74;35.44;94603.92;1656413;85;21691;-58
2022/07/23 09:31:58;;;;;;;10.68;5.50;;;;;;;31.83;35.71;94596.13;1641514;84;21074;-59
2022/07/23 09:34:32;;;;;;;9.93;6.20;;;;;;;31.92;35.25;94588.29;1638722;85;21125;-58
2022/07/23 09:37:13;;;;;;;12.28;5.80;;;;;;;32.03;34.15;94593.45;1645977;85;21115;-58
2022/07/23 09:39:41;;;;;;;12.98;5.15;;;;;;;32.13;32.51;94587.11;1642445;86;21627;-57
2022/07/23 09:42:24;;;;;;;12.73;6.17;;;;;;;32.23;32.00;94583.67;1651309;86;20962;-57
2022/07/23 09:44:57;;;;;;;9.63;5.40;;;;;;;32.37;32.78;94573.36;1634741;85;21042;-58
2022/07/23 09:47:27;;;;;;;;;;;;;;;32.61;33.32;94570.97;1653819;85;21132;-57
2022/07/23 09:50:04;;;;;;;11.60;5.15;;;;;;;32.84;33.97;94572.09;1651303;85;20154;-58
2022/07/23 09:52:36;;;;;;;9.28;5.35;;;;;;;32.95;32.56;94567.22;1654464;85;21124;-58
2022/07/23 09:55:06;;;;;;;9.43;5.00;;;;;;;32.95;31.38;94567.91;1652506;82;21802;-57
2022/07/23 09:57:39;;;;;;;12.00;5.30;;;;;;;32.93;31.50;94564.91;1693654;82;21677;-57
2022/07/23 10:00:09;;;;;;;13.20;5.08;;;;;;;33.07;31.07;94561.00;1717363;82;20974;-58
2022/07/23 10:02:37;;;;;;;5.70;4.30;;;;;;;33.26;29.76;94560.27;1707229;82;21056;-57
2022/07/23 10:05:08;;;;;;;9.15;4.85;;;;;;;33.43;28.99;94560.10;1643588;84;20971;-58
2022/07/23 10:07:41;;;;;;;10.23;5.42;;;;;;;33.52;29.35;94564.38;1648139;85;21250;-58
2022/07/23 10:10:29;;;;;;;11.33;5.33;;;;;;;33.62;28.92;94558.64;1659732;84;21090;-57
2022/07/23 10:16:06;;;;;;;12.07;5.28;;;;;;;33.51;28.90;94560.71;1660310;84;21006;-58
2022/07/23 10:18:36;;;;;;;15.72;6.12;;;;;;;33.32;28.92;94565.02;1684505;84;21075;-58
2022/07/23 10:21:07;;;;;;;17.35;6.03;;;;;;;33.05;29.59;94562.95;1646179;85;21148;-56
2022/07/23 10:23:42;;;;;;;;;;;;;;;32.78;29.78;94568.03;1667959;84;21122;-56
2022/07/23 10:26:42;;;;;;;12.95;5.65;;;;;;;32.49;30.31;94562.91;1653761;84;20205;-58
2022/07/23 10:29:24;;;;;;;17.75;5.12;;;;;;;32.25;30.99;94558.20;1632071;86;21046;-56
2022/07/23 10:32:07;;;;;;;16.42;6.12;;;;;;;32.04;30.85;94551.56;1691428;82;21020;-58
2022/07/23 10:34:43;;;;;;;;;;;;;;;31.89;30.90;94553.91;1728354;82;21239;-57
2022/07/23 10:37:42;;;;;;;10.93;5.20;;;;;;;31.74;31.35;94555.55;1710491;82;20196;-58
2022/07/23 10:40:19;;;;;;;11.50;5.10;;;;;;;31.60;31.97;94565.76;1714298;82;21150;-58
2022/07/23 10:42:48;;;;;;;10.45;5.90;;;;;;;31.45;32.84;94565.95;1700623;82;21003;-57
2022/07/23 10:45:39;;;;;;;13.00;5.90;;;;;;;31.35;33.72;94569.42;1718342;82;20954;-57
2022/07/23 10:48:29;;;;;;;12.33;5.60;;;;;;;31.26;33.57;94568.67;1718799;82;21211;-57
2022/07/23 10:51:13;;;;;;;12.53;6.50;;;;;;;31.14;34.20;94562.66;1721739;82;21108;-58
2022/07/23 10:53:54;;;;;;;10.20;6.50;;;;;;;31.02;33.96;94565.24;1711620;82;21013;-57
2022/07/23 10:56:58;;;;;;;10.30;5.92;;;;;;;30.89;34.22;94572.67;1706859;83;21641;-58
2022/07/23 10:59:26;;;;;;;21.65;10.15;;;;;;;30.78;34.19;94588.82;1710126;82;21004;-58
2022/07/23 11:02:08;;;;;;;10.55;6.83;;;;;;;30.69;34.39;94606.51;1675271;83;21146;-56
2022/07/23 11:04:50;;;;;;;13.35;6.53;;;;;;;30.63;35.02;94601.75;1680190;83;20966;-57
2022/07/23 11:07:18;;;;;;;9.95;6.08;;;;;;;30.57;36.30;94604.70;1712592;83;20942;-57
2022/07/23 11:09:49;;;;;;;11.00;6.75;;;;;;;30.43;36.29;94594.98;1712431;82;21445;-59
2022/07/23 11:12:32;;;;;;;8.90;6.03;;;;;;;30.32;36.16;94589.11;1706835;82;21082;-57
2022/07/23 11:15:09;;;;;;;12.47;6.00;;;;;;;30.21;36.81;94598.12;1717163;82;21219;-57
2022/07/23 11:17:48;;;;;;;11.00;6.40;;;;;;;30.04;38.08;94600.89;1715762;83;21123;-59
2022/07/23 11:20:18;;;;;;;16.45;6.33;;;;;;;29.83;38.56;94599.67;1679356;83;21129;-58
2022/07/23 11:22:51;;;;;;;9.75;6.70;;;;;;;29.63;38.89;94605.65;1705958;82;21663;-57
2022/07/23 11:25:29;;;;;;;13.45;7.33;;;;;;;29.47;40.07;94608.50;1673756;84;21085;-57
2022/07/23 11:28:14;;;;;;;19.23;9.75;;;;;;;29.30;42.00;94606.26;1664498;85;21264;-58
2022/07/23 11:30:46;;;;;;;11.05;6.37;;;;;;;29.09;43.02;94603.59;1678881;84;21019;-58
2022/07/23 11:33:17;;;;;;;8.78;6.47;;;;;;;28.88;43.48;94598.81;1678425;85;21563;-58
2022/07/23 11:36:02;;;;;;;14.30;9.28;;;;;;;28.67;45.40;94611.05;1675347;84;20999;-57
2022/07/23 11:38:31;;;;;;;25.50;10.93;;;;;;;28.40;48.71;94620.60;1721057;82;21164;-58
2022/07/23 11:41:00;;;;;;;26.45;12.28;;;;;;;28.03;50.51;94623.41;1706517;82;21288;-59